createdAt,value
2019-05-11T00:00:04.246Z,5.50
2019-05-11T00:02:35.019Z,6.33
2019-05-11T00:05:04.654Z,5.80
2019-05-11T00:07:34.165Z,6.35
2019-05-11T00:10:04.380Z,6.10
2019-05-11T00:12:34.955Z,6.90
2019-05-11T00:15:04.721Z,5.97
2019-05-11T00:17:34.246Z,7.10
2019-05-11T00:20:03.793Z,7.00
2019-05-11T00:22:33.305Z,7.05
2019-05-11T00:25:02.846Z,6.90
2019-05-11T00:27:33.673Z,8.33
2019-05-11T00:30:03.324Z,7.80
2019-05-11T00:32:32.991Z,8.05
2019-05-11T00:35:03.425Z,7.90
2019-05-11T00:37:34.549Z,7.97
2019-05-11T00:40:13.894Z,7.77
2019-05-11T00:42:35.612Z,7.30
2019-05-11T00:45:05.635Z,8.10
2019-05-11T00:47:36.136Z,7.90
2019-05-11T00:50:06.298Z,8.90
2019-05-11T00:52:35.836Z,8.65
2019-05-11T00:55:05.404Z,7.03
2019-05-11T00:57:34.944Z,7.67
2019-05-11T01:00:04.631Z,8.75
2019-05-11T01:02:35.222Z,9.03
2019-05-11T01:05:05.076Z,8.73
2019-05-11T01:07:34.561Z,7.97
2019-05-11T01:10:04.330Z,8.48
2019-05-11T01:12:33.828Z,8.43
2019-05-11T01:15:03.425Z,8.53
2019-05-11T01:17:32.945Z,9.08
2019-05-11T01:20:02.461Z,8.30
2019-05-11T01:22:31.962Z,9.50
2019-05-11T01:25:01.471Z,9.28
2019-05-11T01:27:30.967Z,9.00
2019-05-11T01:30:00.504Z,9.45
2019-05-11T01:32:30.031Z,9.68
2019-05-11T01:34:59.628Z,9.85
2019-05-11T01:37:29.150Z,9.70
2019-05-11T01:39:58.658Z,9.65
2019-05-11T01:42:28.168Z,9.25
2019-05-11T01:44:57.685Z,9.70
2019-05-11T01:47:27.195Z,10.57
2019-05-11T01:49:56.716Z,11.00
2019-05-11T01:52:26.234Z,11.00
2019-05-11T01:54:55.768Z,11.00
2019-05-11T01:57:25.287Z,10.35
2019-05-11T01:59:54.800Z,10.30
2019-05-11T02:02:24.308Z,11.03
2019-05-11T02:05:12.857Z,10.10
2019-05-11T02:07:42.374Z,10.18
2019-05-11T02:10:11.968Z,11.08
2019-05-11T02:12:41.476Z,10.60
2019-05-11T02:15:12.081Z,10.18
2019-05-11T02:17:41.608Z,9.40
2019-05-11T02:20:11.268Z,9.00
2019-05-11T02:22:40.782Z,8.90
2019-05-11T02:25:10.367Z,8.18
2019-05-11T02:27:39.874Z,8.10
2019-05-11T02:30:09.670Z,8.10
2019-05-11T02:32:39.167Z,8.10
2019-05-11T02:35:09.536Z,7.25
2019-05-11T02:37:39.040Z,7.00
2019-05-11T02:40:09.126Z,7.60
2019-05-11T02:42:38.626Z,7.40
2019-05-11T02:45:10.135Z,7.50
2019-05-11T02:47:39.651Z,7.47
2019-05-11T02:50:09.684Z,7.47
2019-05-11T02:52:39.287Z,7.08
2019-05-11T02:55:09.055Z,7.30
2019-05-11T02:57:38.561Z,7.13
2019-05-11T03:00:08.544Z,7.20
2019-05-11T03:02:38.063Z,6.97
2019-05-11T03:05:08.679Z,6.65
2019-05-11T03:07:38.177Z,6.90
2019-05-11T03:10:07.711Z,6.53
2019-05-11T03:12:37.285Z,6.78
2019-05-11T03:15:06.918Z,7.80
2019-05-11T03:17:36.459Z,7.00
2019-05-11T03:20:06.163Z,7.50
2019-05-11T03:22:35.688Z,7.58
2019-05-11T03:25:05.313Z,6.85
2019-05-11T03:27:34.812Z,7.10
2019-05-11T03:30:04.973Z,7.70
2019-05-11T03:32:34.467Z,7.12
2019-05-11T03:35:04.389Z,7.10
2019-05-11T03:37:33.888Z,7.40
2019-05-11T03:40:03.424Z,7.00
2019-05-11T03:42:32.949Z,7.35
2019-05-11T03:45:02.468Z,8.00
2019-05-11T03:47:31.997Z,7.80
2019-05-11T03:50:01.646Z,7.15
2019-05-11T03:52:31.094Z,7.37
2019-05-11T03:55:00.603Z,8.15
2019-05-11T03:57:30.113Z,6.83
2019-05-11T03:59:59.618Z,7.87
2019-05-11T04:02:29.126Z,7.37
2019-05-11T04:04:58.658Z,7.12
2019-05-11T04:07:28.159Z,8.25
2019-05-11T04:09:57.697Z,7.10
2019-05-11T04:12:34.919Z,7.85
2019-05-11T04:14:58.437Z,7.80
2019-05-11T04:17:27.939Z,8.18
2019-05-11T04:19:57.470Z,8.90
2019-05-11T04:22:26.977Z,8.55
2019-05-11T04:24:56.510Z,8.78
2019-05-11T04:27:26.008Z,7.60
2019-05-11T04:29:56.491Z,8.80
2019-05-11T04:32:25.999Z,8.63
2019-05-11T04:34:56.579Z,8.90
2019-05-11T04:37:26.094Z,8.33
2019-05-11T04:39:55.626Z,8.68
2019-05-11T04:42:25.129Z,8.63
2019-05-11T04:44:54.700Z,8.40
2019-05-11T04:47:24.211Z,8.90
2019-05-11T04:49:53.805Z,8.88
2019-05-11T04:52:23.327Z,8.30
2019-05-11T04:54:52.881Z,8.60
2019-05-11T04:57:22.422Z,8.60
2019-05-11T04:59:51.932Z,8.05
2019-05-11T05:02:21.851Z,8.85
2019-05-11T05:04:52.511Z,7.80
2019-05-11T05:07:22.027Z,8.70
2019-05-11T05:09:51.549Z,8.00
2019-05-11T05:12:21.063Z,7.83
2019-05-11T05:14:50.574Z,7.80
2019-05-11T05:17:20.185Z,7.67
2019-05-11T05:19:49.715Z,8.00
2019-05-11T05:22:19.293Z,7.50
2019-05-11T05:24:48.791Z,7.80
2019-05-11T05:27:18.296Z,7.43
2019-05-11T05:29:47.801Z,7.47
2019-05-11T05:32:17.380Z,7.70
2019-05-11T05:34:46.892Z,7.30
2019-05-11T05:37:16.427Z,7.17
2019-05-11T05:39:45.946Z,7.25
2019-05-11T05:42:15.489Z,6.43
2019-05-11T05:44:45.017Z,7.50
2019-05-11T05:47:14.558Z,7.20
2019-05-11T05:49:44.903Z,6.53
2019-05-11T05:52:14.608Z,6.85
2019-05-11T05:54:44.141Z,6.28
2019-05-11T05:57:13.659Z,5.93
2019-05-11T05:59:43.250Z,6.03
2019-05-11T06:02:12.776Z,6.33
2019-05-11T06:04:42.327Z,6.53
2019-05-11T06:07:11.858Z,6.37
2019-05-11T06:09:41.411Z,6.03
2019-05-11T06:12:10.946Z,5.62
2019-05-11T06:14:40.471Z,5.67
2019-05-11T06:17:10.023Z,5.50
2019-05-11T06:19:39.548Z,6.40
2019-05-11T06:22:09.187Z,6.12
2019-05-11T06:24:38.675Z,5.60
2019-05-11T06:27:08.207Z,6.00
2019-05-11T06:29:37.729Z,5.72
2019-05-11T06:32:07.260Z,6.23
2019-05-11T06:34:36.798Z,5.77
2019-05-11T06:37:06.311Z,5.47
2019-05-11T06:39:36.873Z,5.85
2019-05-11T06:42:06.551Z,5.93
2019-05-11T06:44:36.060Z,5.90
2019-05-11T06:47:05.610Z,5.40
2019-05-11T06:49:35.109Z,5.80
2019-05-11T06:52:04.794Z,5.50
2019-05-11T06:54:34.285Z,5.57
2019-05-11T06:57:03.796Z,5.85
2019-05-11T06:59:33.288Z,5.40
2019-05-11T07:02:02.795Z,5.97
2019-05-11T07:04:32.313Z,5.60
2019-05-11T07:07:01.834Z,5.33
2019-05-11T07:09:31.337Z,5.42
2019-05-11T07:12:00.891Z,5.40
2019-05-11T07:14:30.423Z,5.70
2019-05-11T07:16:59.916Z,5.70
2019-05-11T07:19:29.412Z,5.40
2019-05-11T07:21:58.914Z,6.15
2019-05-11T07:24:28.402Z,4.90
2019-05-11T07:26:57.900Z,5.60
2019-05-11T07:29:27.382Z,5.25
2019-05-11T07:32:00.656Z,6.08
2019-05-11T07:34:28.092Z,5.65
2019-05-11T07:36:57.743Z,6.10
2019-05-11T07:39:27.918Z,6.40
2019-05-11T07:41:58.479Z,5.60
2019-05-11T07:44:38.236Z,5.97
2019-05-11T07:46:59.232Z,6.00
2019-05-11T07:49:29.287Z,5.47
2019-05-11T07:51:58.906Z,5.12
2019-05-11T07:54:28.369Z,5.70
2019-05-11T07:56:58.502Z,5.72
2019-05-11T07:59:28.995Z,5.30
2019-05-11T08:01:58.608Z,6.00
2019-05-11T08:04:28.912Z,6.50
2019-05-11T08:06:58.629Z,6.00
2019-05-11T08:09:28.131Z,6.47
2019-05-11T08:11:58.458Z,5.55
2019-05-11T08:14:29.011Z,5.72
2019-05-11T08:16:59.454Z,5.90
2019-05-11T08:19:29.176Z,5.62
2019-05-11T08:21:58.708Z,6.35
2019-05-11T08:24:28.570Z,6.08
2019-05-11T08:26:58.443Z,6.17
2019-05-11T08:29:28.090Z,6.10
2019-05-11T08:31:58.115Z,6.40
2019-05-11T08:34:28.778Z,5.55
2019-05-11T08:36:58.549Z,5.67
2019-05-11T08:39:29.178Z,6.00
2019-05-11T08:41:59.174Z,5.47
2019-05-11T08:44:29.000Z,5.90
2019-05-11T08:46:58.534Z,5.72
2019-05-11T08:49:28.856Z,5.50
2019-05-11T08:51:58.457Z,6.13
2019-05-11T08:54:28.834Z,5.75
2019-05-11T08:56:59.532Z,5.10
2019-05-11T08:59:29.990Z,6.05
2019-05-11T09:01:59.552Z,5.67
2019-05-11T09:04:29.097Z,5.67
2019-05-11T09:06:58.847Z,5.90
2019-05-11T09:09:28.855Z,5.50
2019-05-11T09:11:59.035Z,5.70
2019-05-11T09:14:28.635Z,5.80
2019-05-11T09:16:58.108Z,5.92
2019-05-11T09:19:28.439Z,5.80
2019-05-11T09:22:02.900Z,5.80
2019-05-11T09:24:30.497Z,6.03
2019-05-11T09:27:00.009Z,6.33
2019-05-11T09:29:29.513Z,6.30
2019-05-11T09:31:59.987Z,6.55
2019-05-11T09:34:29.511Z,6.15
2019-05-11T09:36:59.673Z,6.43
2019-05-11T09:39:29.142Z,6.22
2019-05-11T09:41:58.701Z,7.00
2019-05-11T09:44:29.024Z,6.30
2019-05-11T09:47:01.896Z,6.03
2019-05-11T09:49:44.058Z,6.75
2019-05-11T09:52:01.092Z,6.42
2019-05-11T09:54:30.594Z,6.10
2019-05-11T09:57:00.096Z,5.83
2019-05-11T09:59:29.614Z,6.20
2019-05-11T10:01:59.171Z,5.12
2019-05-11T10:04:29.013Z,6.08
2019-05-11T10:06:58.707Z,6.37
2019-05-11T10:09:28.256Z,6.10
2019-05-11T10:11:58.436Z,5.92
2019-05-11T10:14:28.832Z,6.12
2019-05-11T10:16:58.689Z,5.70
2019-05-11T10:19:28.614Z,5.53
2019-05-11T10:21:58.297Z,5.97
2019-05-11T10:24:28.479Z,6.40
2019-05-11T10:26:58.082Z,5.90
2019-05-11T10:29:29.055Z,5.85
2019-05-11T10:31:58.944Z,6.45
2019-05-11T10:34:28.754Z,5.40
2019-05-11T10:36:58.310Z,5.30
2019-05-11T10:39:28.106Z,5.80
2019-05-11T10:41:58.458Z,6.03
2019-05-11T10:44:28.309Z,5.70
2019-05-11T10:46:58.935Z,6.10
2019-05-11T10:49:29.091Z,5.87
2019-05-11T10:51:58.900Z,5.90
2019-05-11T10:54:28.966Z,5.70
2019-05-11T10:56:58.512Z,5.55
2019-05-11T10:59:28.488Z,6.90
2019-05-11T11:01:58.998Z,5.87
2019-05-11T11:04:29.008Z,5.60
2019-05-11T11:06:59.540Z,5.05
2019-05-11T11:09:29.061Z,5.50
2019-05-11T11:11:58.573Z,6.20
2019-05-11T11:14:28.794Z,5.03
2019-05-11T11:16:58.645Z,6.30
2019-05-11T11:19:29.052Z,5.10
2019-05-11T11:22:17.695Z,5.00
2019-05-11T11:24:29.814Z,5.65
2019-05-11T11:26:59.309Z,6.00
2019-05-11T11:29:28.984Z,5.37
2019-05-11T11:31:59.271Z,10.70
2019-05-11T11:34:28.790Z,5.55
2019-05-11T11:36:58.284Z,5.25
2019-05-11T11:39:28.443Z,5.60
2019-05-11T11:41:58.563Z,5.90
2019-05-11T11:44:28.737Z,7.00
2019-05-11T11:46:59.144Z,6.08
2019-05-11T11:49:28.824Z,6.45
2019-05-11T11:51:58.319Z,5.28
2019-05-11T11:54:28.682Z,5.70
2019-05-11T11:56:59.090Z,5.50
2019-05-11T11:59:28.952Z,5.00
2019-05-11T12:01:59.386Z,5.40
2019-05-11T12:04:28.887Z,5.40
2019-05-11T12:06:58.395Z,5.55
2019-05-11T12:09:28.692Z,4.55
2019-05-11T12:11:58.465Z,4.97
2019-05-11T12:14:28.406Z,5.40
2019-05-11T12:17:07.471Z,4.90
2019-05-11T12:19:29.116Z,4.70
2019-05-11T12:21:58.629Z,4.80
2019-05-11T12:24:28.867Z,4.45
2019-05-11T12:26:58.828Z,5.17
2019-05-11T12:29:28.376Z,4.62
2019-05-11T12:31:59.588Z,7.22
2019-05-11T12:34:29.095Z,13.85
2019-05-11T12:36:58.611Z,28.60
2019-05-11T12:39:28.397Z,9.37
2019-05-11T12:41:58.390Z,4.90
2019-05-11T12:44:28.521Z,4.28
2019-05-11T12:46:58.466Z,4.47
2019-05-11T12:49:28.941Z,4.00
2019-05-11T12:51:59.553Z,4.62
2019-05-11T12:54:29.046Z,4.00
2019-05-11T12:56:58.559Z,4.10
2019-05-11T12:59:28.083Z,4.30
2019-05-11T13:01:59.036Z,4.12
2019-05-11T13:04:28.756Z,4.53
2019-05-11T13:06:58.329Z,4.10
2019-05-11T13:09:28.832Z,3.92
2019-05-11T13:11:58.891Z,4.80
2019-05-11T13:14:28.444Z,4.72
2019-05-11T13:16:58.996Z,4.95
2019-05-11T13:19:28.640Z,4.85
2019-05-11T13:21:58.944Z,4.47
2019-05-11T13:24:28.640Z,4.92
2019-05-11T13:26:59.769Z,5.05
2019-05-11T13:29:30.137Z,4.95
2019-05-11T13:31:59.652Z,4.92
2019-05-11T13:34:31.465Z,4.72
2019-05-11T13:37:00.389Z,5.53
2019-05-11T13:39:29.894Z,4.50
2019-05-11T13:41:59.424Z,4.90
2019-05-11T13:44:28.933Z,5.00
2019-05-11T13:46:58.782Z,5.12
2019-05-11T13:49:28.483Z,6.40
2019-05-11T13:51:58.505Z,5.50
2019-05-11T13:54:29.772Z,5.08
2019-05-11T13:56:59.403Z,5.10
2019-05-11T13:59:28.933Z,5.50
2019-05-11T14:01:58.467Z,5.17
2019-05-11T14:04:28.246Z,4.80
2019-05-11T14:06:58.629Z,5.90
2019-05-11T14:09:28.999Z,4.90
2019-05-11T14:11:58.613Z,5.15
2019-05-11T14:14:28.984Z,5.00
2019-05-11T14:16:59.011Z,5.50
2019-05-11T14:19:29.210Z,5.37
2019-05-11T14:22:00.063Z,5.83
2019-05-11T14:24:29.593Z,5.60
2019-05-11T14:26:59.094Z,5.93
2019-05-11T14:29:28.642Z,5.57
2019-05-11T14:31:58.279Z,6.65
2019-05-11T14:34:28.452Z,5.72
2019-05-11T14:36:58.374Z,5.60
2019-05-11T14:39:28.152Z,5.58
2019-05-11T14:41:58.656Z,6.40
2019-05-11T14:44:28.761Z,5.90
2019-05-11T14:46:59.283Z,5.80
2019-05-11T14:49:29.017Z,6.08
2019-05-11T14:51:58.525Z,6.00
2019-05-11T14:54:28.822Z,6.17
2019-05-11T14:56:59.588Z,6.35
2019-05-11T14:59:29.140Z,6.20
2019-05-11T15:01:58.670Z,6.45
2019-05-11T15:04:28.784Z,5.60
2019-05-11T15:06:58.414Z,5.80
2019-05-11T15:09:28.561Z,6.40
2019-05-11T15:11:58.322Z,6.07
2019-05-11T15:14:28.820Z,5.97
2019-05-11T15:16:58.509Z,5.50
2019-05-11T15:19:28.093Z,5.40
2019-05-11T15:21:58.158Z,6.00
2019-05-11T15:24:28.745Z,5.27
2019-05-11T15:26:58.517Z,4.35
2019-05-11T15:29:28.734Z,5.00
2019-05-11T15:31:58.322Z,5.20
2019-05-11T15:34:28.889Z,4.40
2019-05-11T15:36:58.542Z,4.15
2019-05-11T15:39:28.724Z,3.90
2019-05-11T15:42:09.646Z,3.77
2019-05-11T15:44:29.832Z,3.93
2019-05-11T15:46:59.412Z,4.28
2019-05-11T15:49:29.935Z,3.90
2019-05-11T15:51:59.456Z,4.30
2019-05-11T15:54:29.030Z,4.08
2019-05-11T15:56:59.980Z,3.95
2019-05-11T15:59:30.533Z,3.72
2019-05-11T16:02:01.268Z,3.70
2019-05-11T16:04:30.865Z,3.10
2019-05-11T16:07:00.383Z,3.20
2019-05-11T16:09:29.916Z,2.98
2019-05-11T16:11:59.457Z,3.33
2019-05-11T16:14:28.996Z,2.83
2019-05-11T16:16:58.601Z,2.63
2019-05-11T16:19:28.292Z,3.10
2019-05-11T16:21:57.803Z,2.80
2019-05-11T16:24:27.442Z,2.70
2019-05-11T16:26:58.301Z,2.53
2019-05-11T16:29:28.149Z,3.00
2019-05-11T16:31:57.963Z,2.90
2019-05-11T16:34:27.862Z,2.45
2019-05-11T16:36:57.549Z,2.67
2019-05-11T16:39:28.008Z,2.30
2019-05-11T16:41:58.613Z,2.30
2019-05-11T16:44:28.112Z,2.30
2019-05-11T16:46:58.677Z,2.53
2019-05-11T16:49:32.491Z,2.60
2019-05-11T16:52:01.561Z,2.70
2019-05-11T16:54:31.065Z,2.98
2019-05-11T16:57:00.576Z,2.27
2019-05-11T16:59:30.091Z,2.67
2019-05-11T17:01:59.618Z,2.70
2019-05-11T17:04:31.268Z,2.27
2019-05-11T17:07:00.472Z,2.60
2019-05-11T17:09:30.056Z,2.50
2019-05-11T17:11:59.592Z,2.40
2019-05-11T17:14:29.150Z,2.30
2019-05-11T17:16:58.727Z,2.40
2019-05-11T17:19:42.266Z,2.43
2019-05-11T17:21:59.436Z,1.80
2019-05-11T17:24:28.982Z,2.30
2019-05-11T17:26:58.502Z,1.90
2019-05-11T17:29:28.043Z,2.10
2019-05-11T17:31:58.061Z,2.00
2019-05-11T17:34:28.506Z,2.00
2019-05-11T17:37:00.182Z,2.02
2019-05-11T17:39:29.276Z,2.30
2019-05-11T17:41:58.794Z,2.58
2019-05-11T17:44:28.293Z,2.70
2019-05-11T17:46:57.940Z,2.40
2019-05-11T17:49:27.770Z,2.47
2019-05-11T17:51:57.403Z,2.80
2019-05-11T17:54:28.445Z,2.70
2019-05-11T17:56:58.088Z,2.62
2019-05-11T17:59:28.264Z,2.33
2019-05-11T18:01:59.034Z,2.73
2019-05-11T18:04:28.716Z,2.10
2019-05-11T18:06:58.900Z,2.67
2019-05-11T18:09:29.435Z,2.40
2019-05-11T18:11:58.952Z,2.52
2019-05-11T18:14:29.455Z,2.93
2019-05-11T18:16:59.135Z,2.80
2019-05-11T18:19:28.648Z,2.70
2019-05-11T18:21:58.230Z,3.17
2019-05-11T18:24:28.743Z,2.70
2019-05-11T18:26:59.097Z,2.40
2019-05-11T18:29:29.024Z,2.90
2019-05-11T18:31:58.471Z,2.30
2019-05-11T18:34:28.017Z,2.80
2019-05-11T18:36:57.936Z,2.42
2019-05-11T18:39:28.619Z,2.80
2019-05-11T18:41:58.823Z,2.72
2019-05-11T18:44:28.457Z,2.80
2019-05-11T18:46:59.350Z,2.95
2019-05-11T18:49:28.870Z,2.50
2019-05-11T18:51:58.689Z,2.90
2019-05-11T18:54:28.323Z,2.97
2019-05-11T18:56:58.889Z,2.70
2019-05-11T18:59:29.085Z,2.35
2019-05-11T19:01:58.755Z,2.40
2019-05-11T19:04:28.844Z,3.00
2019-05-11T19:07:12.832Z,2.45
2019-05-11T19:09:30.727Z,2.58
2019-05-11T19:14:38.840Z,2.90
2019-05-11T19:17:08.446Z,2.60
2019-05-11T19:19:42.935Z,3.10
2019-05-11T19:22:13.603Z,3.33
2019-05-11T19:24:43.107Z,3.00
2019-05-11T19:27:12.608Z,3.10
2019-05-11T19:29:42.477Z,2.90
2019-05-11T19:32:11.992Z,2.90
2019-05-11T19:34:42.608Z,2.90
2019-05-11T19:37:12.115Z,2.50
2019-05-11T19:39:41.691Z,3.23
2019-05-11T19:42:12.257Z,2.50
2019-05-11T19:44:42.752Z,2.90
2019-05-11T19:47:12.270Z,2.77
2019-05-11T19:49:41.824Z,3.37
2019-05-11T19:52:11.408Z,3.07
2019-05-11T19:54:41.891Z,2.47
2019-05-11T19:57:11.427Z,2.75
2019-05-11T19:59:41.893Z,2.67
2019-05-11T20:02:11.436Z,2.83
2019-05-11T20:04:40.951Z,2.42
2019-05-11T20:07:10.475Z,2.77
2019-05-11T20:09:39.998Z,3.10
2019-05-11T20:12:09.534Z,2.47
2019-05-11T20:14:39.057Z,3.60
2019-05-11T20:17:09.157Z,3.20
2019-05-11T20:19:39.753Z,3.20
2019-05-11T20:22:09.356Z,3.25
2019-05-11T20:24:40.639Z,2.98
2019-05-11T20:27:10.704Z,3.10
2019-05-11T20:29:40.158Z,3.10
2019-05-11T20:32:09.684Z,3.00
2019-05-11T20:34:39.203Z,3.17
2019-05-11T20:37:08.749Z,2.90
2019-05-11T20:39:38.277Z,2.80
2019-05-11T20:42:08.716Z,2.92
2019-05-11T20:44:38.306Z,3.38
2019-05-11T20:47:07.900Z,2.60
2019-05-11T20:49:38.644Z,2.67
2019-05-11T20:52:08.723Z,3.00
2019-05-11T20:54:38.656Z,2.93
2019-05-11T20:57:09.004Z,3.20
2019-05-11T20:59:38.637Z,2.70
2019-05-11T21:02:09.278Z,2.87
2019-05-11T21:04:40.077Z,2.70
2019-05-11T21:07:09.598Z,3.30
2019-05-11T21:09:39.182Z,2.70
2019-05-11T21:12:08.678Z,3.05
2019-05-11T21:14:38.648Z,2.40
2019-05-11T21:17:09.062Z,3.50
2019-05-11T21:19:39.768Z,3.12
2019-05-11T21:22:09.887Z,3.47
2019-05-11T21:24:39.490Z,3.20
2019-05-11T21:27:09.001Z,2.70
2019-05-11T21:29:38.819Z,2.80
2019-05-11T21:32:08.312Z,3.00
2019-05-11T21:34:38.338Z,2.55
2019-05-11T21:37:08.897Z,2.50
2019-05-11T21:39:38.401Z,2.70
2019-05-11T21:42:07.921Z,2.98
2019-05-11T21:44:37.475Z,3.12
2019-05-11T21:47:07.747Z,3.07
2019-05-11T21:49:38.372Z,2.40
2019-05-11T21:52:07.924Z,3.20
2019-05-11T21:54:38.656Z,3.30
2019-05-11T21:57:08.430Z,2.45
2019-05-11T21:59:38.072Z,2.60
2019-05-11T22:02:08.296Z,2.98
2019-05-11T22:04:39.786Z,3.40
2019-05-11T22:07:09.287Z,4.10
2019-05-11T22:09:38.786Z,3.70
2019-05-11T22:12:10.839Z,3.17
2019-05-11T22:14:39.504Z,3.00
2019-05-11T22:17:09.094Z,2.70
2019-05-11T22:19:40.532Z,2.55
2019-05-11T22:22:21.129Z,2.70
2019-05-11T22:24:41.267Z,2.73
2019-05-11T22:27:11.750Z,3.00
2019-05-11T22:29:41.281Z,2.60
2019-05-11T22:32:10.784Z,2.77
2019-05-11T22:34:40.318Z,2.65
2019-05-11T22:37:09.865Z,2.10
2019-05-11T22:39:40.145Z,2.45
2019-05-11T22:42:09.707Z,3.00
2019-05-11T22:44:39.208Z,3.17
2019-05-11T22:47:09.052Z,3.22
2019-05-11T22:49:38.655Z,2.72
2019-05-11T22:52:08.773Z,2.55
2019-05-11T22:54:38.500Z,2.90
2019-05-11T22:57:08.890Z,2.80
2019-05-11T22:59:38.593Z,3.00
2019-05-11T23:02:10.676Z,3.00
2019-05-11T23:04:39.300Z,2.60
2019-05-11T23:07:08.851Z,2.70
2019-05-11T23:09:38.355Z,3.02
2019-05-11T23:12:09.014Z,2.98
2019-05-11T23:14:38.727Z,2.65
2019-05-11T23:17:08.275Z,3.10
2019-05-11T23:19:38.270Z,3.10
2019-05-11T23:22:08.334Z,2.95
2019-05-11T23:24:38.171Z,3.02
2019-05-11T23:27:08.102Z,3.47
2019-05-11T23:29:38.377Z,3.20
2019-05-11T23:32:08.678Z,3.08
2019-05-11T23:34:38.896Z,2.83
2019-05-11T23:37:08.396Z,3.10
2019-05-11T23:39:38.714Z,3.10
2019-05-11T23:42:08.311Z,2.98
2019-05-11T23:44:37.808Z,3.12
2019-05-11T23:47:07.406Z,3.20
2019-05-11T23:49:36.972Z,3.00
2019-05-11T23:52:07.644Z,3.50
2019-05-11T23:54:38.217Z,3.47
2019-05-11T23:57:09.499Z,3.95
2019-05-11T23:59:39.122Z,3.30
